createdAt,value
2023-04-18T00:00:21.751Z,0.65
2023-04-18T00:01:21.763Z,0.64
2023-04-18T00:02:22.017Z,0.63
2023-04-18T00:03:21.128Z,0.64
2023-04-18T00:04:21.367Z,0.63
2023-04-18T00:05:21.063Z,0.62
2023-04-18T00:06:21.995Z,0.61
2023-04-18T00:07:21.037Z,0.61
2023-04-18T00:08:21.080Z,0.61
2023-04-18T00:09:22.158Z,0.61
2023-04-18T00:10:22.140Z,0.60
2023-04-18T00:11:21.169Z,0.61
2023-04-18T00:12:22.175Z,0.62
2023-04-18T00:13:22.208Z,0.62
2023-04-18T00:14:22.206Z,0.63
2023-04-18T00:15:21.243Z,0.62
2023-04-18T00:16:22.291Z,0.61
2023-04-18T00:17:22.314Z,0.62
2023-04-18T00:18:22.544Z,0.61
2023-04-18T00:19:21.374Z,0.60
2023-04-18T00:20:22.437Z,0.60
2023-04-18T00:21:22.465Z,0.61
2023-04-18T00:22:22.538Z,0.61
2023-04-18T00:23:21.562Z,0.61
2023-04-18T00:24:21.522Z,0.61
2023-04-18T00:25:22.576Z,0.60
2023-04-18T00:26:22.605Z,0.60
2023-04-18T00:27:21.624Z,0.60
2023-04-18T00:28:22.659Z,0.58
2023-04-18T00:29:22.722Z,0.60
2023-04-18T00:30:22.786Z,0.60
2023-04-18T00:31:21.860Z,0.60
2023-04-18T00:32:22.913Z,0.61
2023-04-18T00:33:21.906Z,0.59
2023-04-18T00:34:21.979Z,0.59
2023-04-18T00:35:21.973Z,0.60
2023-04-18T00:36:22.979Z,0.61
2023-04-18T00:37:22.011Z,0.61
2023-04-18T00:38:22.053Z,0.63
2023-04-18T00:39:22.065Z,0.63
2023-04-18T00:40:23.104Z,0.60
2023-04-18T00:41:23.075Z,0.60
2023-04-18T00:42:22.098Z,0.60
2023-04-18T00:43:23.131Z,0.61
2023-04-18T00:44:22.133Z,0.61
2023-04-18T00:45:23.152Z,0.61
2023-04-18T00:46:23.181Z,0.60
2023-04-18T00:47:22.271Z,0.60
2023-04-18T00:48:22.135Z,0.60
2023-04-18T00:49:22.157Z,0.60
2023-04-18T00:50:23.334Z,0.58
2023-04-18T00:51:23.212Z,0.59
2023-04-18T00:52:23.252Z,0.60
2023-04-18T00:53:23.283Z,0.59
2023-04-18T00:54:22.317Z,0.60
2023-04-18T00:55:23.361Z,0.59
2023-04-18T00:56:23.356Z,0.58
2023-04-18T00:57:23.370Z,0.58
2023-04-18T00:58:23.395Z,0.59
2023-04-18T00:59:23.410Z,0.60
2023-04-18T01:00:22.423Z,0.59
2023-04-18T01:01:23.520Z,0.58
2023-04-18T01:02:23.669Z,0.60
2023-04-18T01:03:22.614Z,0.59
2023-04-18T01:04:22.741Z,0.59
2023-04-18T01:05:22.603Z,0.57
2023-04-18T01:06:22.646Z,0.58
2023-04-18T01:07:22.653Z,0.60
2023-04-18T01:08:23.662Z,0.60
2023-04-18T01:09:23.696Z,0.60
2023-04-18T01:10:22.696Z,0.59
2023-04-18T01:11:22.726Z,0.59
2023-04-18T01:12:23.781Z,0.59
2023-04-18T01:13:22.782Z,0.60
2023-04-18T01:14:23.865Z,0.61
2023-04-18T01:15:22.869Z,0.60
2023-04-18T01:16:24.072Z,0.60
2023-04-18T01:17:22.946Z,0.59
2023-04-18T01:18:24.034Z,0.61
2023-04-18T01:19:24.078Z,0.60
2023-04-18T01:20:22.986Z,0.60
2023-04-18T01:21:24.032Z,0.59
2023-04-18T01:22:24.060Z,0.59
2023-04-18T01:23:24.075Z,0.58
2023-04-18T01:24:24.144Z,0.59
2023-04-18T01:25:24.041Z,0.59
2023-04-18T01:26:24.133Z,0.61
2023-04-18T01:27:24.108Z,0.59
2023-04-18T01:28:23.064Z,0.58
2023-04-18T01:29:24.154Z,0.58
2023-04-18T01:30:24.098Z,0.59
2023-04-18T01:31:23.118Z,0.59
2023-04-18T01:32:23.108Z,0.60
2023-04-18T01:33:23.108Z,0.57
2023-04-18T01:34:24.229Z,0.56
2023-04-18T01:35:24.209Z,0.56
2023-04-18T01:36:23.268Z,0.56
2023-04-18T01:37:24.348Z,0.55
2023-04-18T01:38:23.376Z,0.57
2023-04-18T01:39:23.398Z,0.59
2023-04-18T01:40:23.458Z,0.59
2023-04-18T01:41:24.485Z,0.59
2023-04-18T01:42:24.557Z,0.59
2023-04-18T01:43:23.602Z,0.57
2023-04-18T01:44:23.637Z,0.61
2023-04-18T01:45:24.709Z,0.61
2023-04-18T01:46:23.814Z,0.63
2023-04-18T01:47:24.943Z,0.60
2023-04-18T01:48:24.858Z,0.59
2023-04-18T01:49:23.927Z,0.62
2023-04-18T01:50:24.973Z,0.60
2023-04-18T01:51:25.028Z,0.59
2023-04-18T01:52:25.076Z,0.59
2023-04-18T01:53:25.168Z,0.60
2023-04-18T01:54:24.169Z,0.58
2023-04-18T01:55:25.223Z,0.59
2023-04-18T01:56:25.258Z,0.57
2023-04-18T01:57:25.301Z,0.57
2023-04-18T01:58:24.355Z,0.58
2023-04-18T01:59:24.428Z,0.55
2023-04-18T02:00:25.427Z,0.54
2023-04-18T02:01:24.517Z,0.52
2023-04-18T02:02:24.610Z,0.51
2023-04-18T02:03:25.723Z,0.51
2023-04-18T02:04:25.551Z,0.51
2023-04-18T02:05:25.572Z,0.50
2023-04-18T02:06:24.589Z,0.51
2023-04-18T02:07:24.621Z,0.51
2023-04-18T02:08:24.651Z,0.51
2023-04-18T02:09:24.689Z,0.51
2023-04-18T02:10:25.666Z,0.51
2023-04-18T02:11:25.704Z,0.51
2023-04-18T02:12:24.721Z,0.51
2023-04-18T02:13:25.747Z,0.50
2023-04-18T02:14:24.758Z,0.51
2023-04-18T02:15:25.774Z,0.51
2023-04-18T02:16:25.964Z,0.51
2023-04-18T02:17:24.828Z,0.50
2023-04-18T02:18:24.817Z,0.51
2023-04-18T02:19:25.816Z,0.51
2023-04-18T02:20:24.810Z,0.51
2023-04-18T02:21:25.814Z,0.50
2023-04-18T02:22:24.864Z,0.51
2023-04-18T02:23:24.825Z,0.51
2023-04-18T02:24:24.829Z,0.50
2023-04-18T02:25:25.847Z,0.51
2023-04-18T02:26:24.823Z,0.50
2023-04-18T02:27:24.842Z,0.51
2023-04-18T02:28:25.867Z,0.51
2023-04-18T02:29:25.853Z,0.51
2023-04-18T02:30:24.815Z,0.51
2023-04-18T02:31:25.825Z,0.51
2023-04-18T02:32:24.904Z,0.50
2023-04-18T02:33:25.825Z,0.51
2023-04-18T02:34:25.833Z,0.50
2023-04-18T02:35:24.802Z,0.52
2023-04-18T02:36:25.802Z,0.51
2023-04-18T02:37:25.802Z,0.52
2023-04-18T02:38:24.810Z,0.51
2023-04-18T02:39:24.828Z,0.51
2023-04-18T02:40:25.804Z,0.50
2023-04-18T02:41:24.862Z,0.51
2023-04-18T02:42:24.821Z,0.51
2023-04-18T02:43:24.847Z,0.51
2023-04-18T02:44:24.857Z,0.50
2023-04-18T02:45:25.876Z,0.51
2023-04-18T02:46:25.015Z,0.52
2023-04-18T02:47:25.948Z,0.51
2023-04-18T02:48:25.942Z,0.52
2023-04-18T02:49:25.917Z,0.50
2023-04-18T02:50:25.076Z,0.51
2023-04-18T02:51:25.917Z,0.50
2023-04-18T02:52:25.966Z,0.50
2023-04-18T02:53:25.971Z,0.52
2023-04-18T02:54:26.013Z,0.51
2023-04-18T02:55:26.029Z,0.51
2023-04-18T02:56:26.041Z,0.50
2023-04-18T02:57:26.082Z,0.51
2023-04-18T02:58:25.071Z,0.52
2023-04-18T02:59:26.093Z,0.51
2023-04-18T03:00:26.134Z,0.52
2023-04-18T03:01:25.223Z,0.50
2023-04-18T03:02:26.349Z,0.51
2023-04-18T03:03:26.320Z,0.51
2023-04-18T03:04:26.294Z,0.51
2023-04-18T03:05:25.285Z,0.51
2023-04-18T03:06:26.327Z,0.51
2023-04-18T03:07:26.361Z,0.51
2023-04-18T03:08:26.397Z,0.51
2023-04-18T03:09:26.428Z,0.50
2023-04-18T03:10:26.457Z,0.50
2023-04-18T03:11:26.500Z,0.51
2023-04-18T03:12:26.541Z,0.51
2023-04-18T03:13:26.624Z,0.51
2023-04-18T03:14:26.580Z,0.51
2023-04-18T03:15:25.622Z,0.51
2023-04-18T03:16:25.697Z,0.51
2023-04-18T03:17:26.738Z,0.50
2023-04-18T03:18:25.745Z,0.51
2023-04-18T03:19:26.755Z,0.51
2023-04-18T03:20:26.803Z,0.50
2023-04-18T03:21:26.847Z,0.52
2023-04-18T03:22:26.893Z,0.51
2023-04-18T03:23:25.970Z,0.51
2023-04-18T03:24:27.026Z,0.51
2023-04-18T03:25:26.080Z,0.50
2023-04-18T03:26:26.152Z,0.51
2023-04-18T03:27:27.196Z,0.51
2023-04-18T03:28:27.260Z,0.51
2023-04-18T03:29:26.363Z,0.51
2023-04-18T03:30:26.356Z,0.50
2023-04-18T03:31:27.492Z,0.50
2023-04-18T03:32:27.495Z,0.51
2023-04-18T03:33:27.534Z,0.51
2023-04-18T03:34:26.601Z,0.51
2023-04-18T03:35:26.653Z,0.51
2023-04-18T03:36:26.690Z,0.50
2023-04-18T03:37:27.730Z,0.51
2023-04-18T03:38:27.791Z,0.51
2023-04-18T03:39:26.865Z,0.52
2023-04-18T03:40:27.920Z,0.52
2023-04-18T03:41:28.008Z,0.51
2023-04-18T03:42:27.047Z,0.51
2023-04-18T03:43:28.079Z,0.52
2023-04-18T03:44:28.128Z,0.50
2023-04-18T03:45:27.219Z,0.51
2023-04-18T03:46:27.265Z,0.51
2023-04-18T03:47:28.328Z,0.50
2023-04-18T03:48:28.377Z,0.51
2023-04-18T03:49:27.441Z,0.51
2023-04-18T03:50:27.495Z,0.52
2023-04-18T03:51:28.540Z,0.51
2023-04-18T03:52:29.922Z,0.51
2023-04-18T03:53:28.643Z,0.51
2023-04-18T03:54:27.711Z,0.51
2023-04-18T03:55:28.762Z,0.51
2023-04-18T03:56:28.807Z,0.51
2023-04-18T03:57:27.862Z,0.51
2023-04-18T03:58:27.931Z,0.51
2023-04-18T03:59:27.996Z,0.51
2023-04-18T04:00:28.033Z,0.51
2023-04-18T04:01:29.147Z,0.52
2023-04-18T04:02:28.225Z,0.51
2023-04-18T04:03:28.254Z,0.52
2023-04-18T04:04:29.234Z,0.51
2023-04-18T04:05:29.252Z,0.51
2023-04-18T04:06:28.298Z,0.52
2023-04-18T04:07:28.330Z,0.51
2023-04-18T04:08:28.427Z,0.51
2023-04-18T04:09:29.398Z,0.51
2023-04-18T04:10:29.436Z,0.51
2023-04-18T04:11:28.459Z,0.51
2023-04-18T04:12:28.488Z,0.51
2023-04-18T04:13:28.526Z,0.51
2023-04-18T04:14:28.549Z,0.51
2023-04-18T04:15:28.603Z,0.52
2023-04-18T04:16:29.699Z,0.51
2023-04-18T04:17:29.716Z,0.51
2023-04-18T04:18:29.727Z,0.51
2023-04-18T04:19:29.708Z,0.51
2023-04-18T04:20:29.709Z,0.51
2023-04-18T04:21:28.704Z,0.50
2023-04-18T04:22:29.721Z,0.52
2023-04-18T04:23:29.798Z,0.50
2023-04-18T04:24:29.749Z,0.51
2023-04-18T04:25:28.873Z,0.52
2023-04-18T04:26:29.745Z,0.51
2023-04-18T04:27:29.742Z,0.51
2023-04-18T04:28:28.762Z,0.51
2023-04-18T04:29:28.761Z,0.51
2023-04-18T04:30:29.759Z,0.52
2023-04-18T04:31:28.843Z,0.50
2023-04-18T04:32:28.820Z,0.51
2023-04-18T04:33:28.855Z,0.51
2023-04-18T04:34:29.797Z,0.51
2023-04-18T04:35:28.808Z,0.51
2023-04-18T04:36:29.781Z,0.51
2023-04-18T04:37:29.801Z,0.51
2023-04-18T04:38:29.814Z,0.51
2023-04-18T04:39:29.841Z,0.51
2023-04-18T04:40:29.825Z,0.52
2023-04-18T04:41:29.855Z,0.51
2023-04-18T04:42:29.886Z,0.51
2023-04-18T04:43:29.910Z,0.52
2023-04-18T04:44:30.022Z,0.52
2023-04-18T04:45:30.034Z,0.51
2023-04-18T04:46:29.054Z,0.50
2023-04-18T04:47:29.124Z,0.51
2023-04-18T04:48:29.135Z,0.50
2023-04-18T04:49:29.195Z,0.50
2023-04-18T04:50:29.212Z,0.51
2023-04-18T04:51:30.246Z,0.51
2023-04-18T04:52:30.306Z,0.52
2023-04-18T04:53:30.378Z,0.51
2023-04-18T04:54:30.423Z,0.50
2023-04-18T04:55:30.460Z,0.52
2023-04-18T04:56:30.518Z,0.50
2023-04-18T04:57:30.553Z,0.52
2023-04-18T04:58:30.617Z,0.52
2023-04-18T04:59:30.674Z,0.50
2023-04-18T05:00:29.736Z,0.51
2023-04-18T05:01:30.804Z,0.51
2023-04-18T05:02:31.101Z,0.51
2023-04-18T05:03:29.965Z,0.50
2023-04-18T05:04:31.020Z,0.50
2023-04-18T05:05:30.029Z,0.52
2023-04-18T05:06:30.050Z,0.51
2023-04-18T05:07:31.109Z,0.52
2023-04-18T05:08:31.181Z,0.51
2023-04-18T05:09:30.241Z,0.52
2023-04-18T05:10:30.314Z,0.52
2023-04-18T05:11:31.375Z,0.52
2023-04-18T05:12:30.423Z,0.51
2023-04-18T05:13:31.468Z,0.52
2023-04-18T05:14:31.511Z,0.51
2023-04-18T05:15:30.588Z,0.51
2023-04-18T05:16:30.637Z,0.51
2023-04-18T05:17:31.693Z,0.52
2023-04-18T05:18:31.577Z,0.51
2023-04-18T05:19:30.788Z,0.52
2023-04-18T05:20:31.841Z,0.51
2023-04-18T05:21:30.924Z,0.52
2023-04-18T05:22:30.982Z,0.51
2023-04-18T05:23:31.041Z,0.52
2023-04-18T05:24:32.084Z,0.52
2023-04-18T05:25:32.170Z,0.51
2023-04-18T05:26:32.200Z,0.52
2023-04-18T05:27:31.275Z,0.53
2023-04-18T05:28:32.387Z,0.52
2023-04-18T05:29:32.425Z,0.53
2023-04-18T05:30:32.428Z,0.52
2023-04-18T05:31:32.513Z,0.54
2023-04-18T05:32:32.538Z,0.56
2023-04-18T05:33:31.611Z,0.56
2023-04-18T05:34:31.646Z,0.57
2023-04-18T05:35:32.713Z,0.64
2023-04-18T05:36:31.752Z,0.63
2023-04-18T05:37:32.820Z,0.66
2023-04-18T05:38:32.862Z,0.64
2023-04-18T05:39:32.919Z,0.63
2023-04-18T05:40:32.984Z,0.58
2023-04-18T05:41:33.040Z,0.55
2023-04-18T05:42:33.073Z,0.49
2023-04-18T05:43:33.138Z,0.50
2023-04-18T05:44:33.156Z,0.50
2023-04-18T05:45:33.176Z,0.50
2023-04-18T05:46:33.294Z,0.50
2023-04-18T05:47:33.273Z,0.50
2023-04-18T05:48:33.308Z,0.57
2023-04-18T05:49:32.319Z,0.61
2023-04-18T05:50:33.344Z,0.61
2023-04-18T05:51:33.369Z,0.59
2023-04-18T05:52:32.380Z,0.59
2023-04-18T05:53:33.424Z,0.55
2023-04-18T05:54:32.439Z,0.50
2023-04-18T05:55:33.460Z,0.51
2023-04-18T05:56:33.524Z,0.51
2023-04-18T05:57:32.581Z,0.56
2023-04-18T05:58:33.604Z,0.57
2023-04-18T05:59:32.629Z,0.59
2023-04-18T06:00:33.853Z,0.59
2023-04-18T06:01:32.655Z,0.66
2023-04-18T06:02:33.946Z,0.63
2023-04-18T06:03:34.011Z,0.64
2023-04-18T06:04:33.906Z,0.64
2023-04-18T06:05:32.947Z,0.65
2023-04-18T06:06:33.876Z,0.65
2023-04-18T06:07:33.810Z,0.66
2023-04-18T06:08:32.829Z,0.70
2023-04-18T06:09:33.923Z,0.74
2023-04-18T06:10:33.940Z,0.79
2023-04-18T06:11:33.058Z,0.82
2023-04-18T06:12:33.032Z,0.85
2023-04-18T06:13:34.098Z,0.91
2023-04-18T06:14:33.140Z,0.93
2023-04-18T06:15:34.148Z,0.98
2023-04-18T06:16:34.287Z,1.01
2023-04-18T06:17:34.220Z,1.05
2023-04-18T06:18:34.146Z,1.10
2023-04-18T06:19:33.137Z,1.13
2023-04-18T06:20:33.175Z,1.21
2023-04-18T06:21:33.230Z,1.22
2023-04-18T06:22:34.190Z,1.28
2023-04-18T06:23:34.226Z,1.30
2023-04-18T06:24:33.231Z,1.35
2023-04-18T06:25:34.291Z,1.36
2023-04-18T06:26:34.268Z,1.42
2023-04-18T06:27:33.256Z,1.47
2023-04-18T06:28:34.292Z,1.62
2023-04-18T06:29:35.594Z,1.58
2023-04-18T06:30:34.303Z,1.59
2023-04-18T06:31:34.401Z,1.67
2023-04-18T06:32:34.307Z,1.74
2023-04-18T06:33:34.300Z,1.71
2023-04-18T06:34:33.246Z,1.72
2023-04-18T06:35:33.254Z,1.70
2023-04-18T06:36:34.222Z,1.80
2023-04-18T06:37:34.264Z,1.86
2023-04-18T06:38:34.228Z,1.88
2023-04-18T06:39:33.231Z,1.91
2023-04-18T06:40:33.207Z,1.94
2023-04-18T06:41:33.231Z,1.93
2023-04-18T06:42:34.187Z,1.86
2023-04-18T06:43:33.196Z,1.98
2023-04-18T06:44:34.166Z,2.04
2023-04-18T06:45:33.193Z,2.02
2023-04-18T06:46:34.223Z,2.05
2023-04-18T06:47:33.169Z,2.04
2023-04-18T06:48:34.191Z,2.07
2023-04-18T06:49:33.140Z,2.11
2023-04-18T06:50:33.176Z,2.15
2023-04-18T06:51:34.144Z,2.16
2023-04-18T06:52:34.129Z,2.24
2023-04-18T06:53:34.184Z,2.32
2023-04-18T06:54:34.111Z,2.42
2023-04-18T06:55:34.355Z,2.51
2023-04-18T06:56:36.349Z,2.52
2023-04-18T06:57:34.149Z,2.56
2023-04-18T06:58:34.110Z,2.53
2023-04-18T06:59:33.178Z,2.56
2023-04-18T07:00:34.133Z,2.57
2023-04-18T07:01:34.239Z,2.61
2023-04-18T07:02:34.182Z,2.77
2023-04-18T07:03:33.158Z,2.75
2023-04-18T07:04:33.147Z,2.95
2023-04-18T07:05:34.077Z,3.14
2023-04-18T07:06:34.064Z,3.08
2023-04-18T07:07:33.063Z,3.08
2023-04-18T07:08:34.041Z,3.16
2023-04-18T07:09:33.060Z,3.15
2023-04-18T07:10:34.019Z,3.07
2023-04-18T07:11:34.061Z,3.15
2023-04-18T07:12:34.085Z,3.11
2023-04-18T07:13:33.113Z,3.09
2023-04-18T07:14:34.356Z,3.06
2023-04-18T07:15:33.992Z,3.14
2023-04-18T07:16:34.026Z,3.13
2023-04-18T07:17:32.997Z,3.13
2023-04-18T07:18:38.076Z,3.20
2023-04-18T07:19:34.175Z,3.20
2023-04-18T07:20:34.088Z,3.21
2023-04-18T07:21:33.104Z,3.25
2023-04-18T07:22:33.081Z,3.27
2023-04-18T07:23:34.178Z,3.25
2023-04-18T07:24:33.097Z,3.27
2023-04-18T07:25:34.130Z,3.28
2023-04-18T07:26:34.129Z,3.34
2023-04-18T07:27:34.076Z,3.28
2023-04-18T07:28:34.104Z,3.21
2023-04-18T07:29:34.072Z,3.28
2023-04-18T07:30:34.067Z,3.23
2023-04-18T07:31:34.194Z,3.39
2023-04-18T07:32:34.083Z,3.31
2023-04-18T07:33:33.049Z,3.34
2023-04-18T07:34:34.063Z,3.37
2023-04-18T07:35:33.081Z,3.26
2023-04-18T07:36:34.072Z,3.21
2023-04-18T07:37:34.037Z,3.31
2023-04-18T07:38:34.075Z,3.25
2023-04-18T07:39:34.098Z,3.25
2023-04-18T07:40:34.062Z,3.20
2023-04-18T07:41:33.094Z,3.32
2023-04-18T07:42:34.109Z,3.26
2023-04-18T07:43:33.116Z,3.20
2023-04-18T07:44:33.119Z,3.24
2023-04-18T07:45:34.203Z,3.21
2023-04-18T07:46:34.164Z,3.28
2023-04-18T07:47:34.206Z,3.20
2023-04-18T07:48:33.132Z,3.00
2023-04-18T07:49:33.129Z,2.85
2023-04-18T07:50:34.361Z,2.81
2023-04-18T07:51:34.117Z,2.77
2023-04-18T07:52:33.116Z,2.66
2023-04-18T07:53:34.113Z,2.68
2023-04-18T07:54:33.111Z,2.81
2023-04-18T07:55:33.118Z,2.72
2023-04-18T07:56:33.185Z,2.83
2023-04-18T07:57:34.117Z,2.75
2023-04-18T07:58:34.221Z,2.72
2023-04-18T07:59:33.109Z,2.69
2023-04-18T08:00:33.170Z,2.69
2023-04-18T08:01:34.375Z,2.70
2023-04-18T08:02:34.223Z,2.74
2023-04-18T08:03:34.484Z,2.71
2023-04-18T08:04:34.555Z,2.65
2023-04-18T08:05:34.205Z,2.61
2023-04-18T08:06:34.155Z,2.51
2023-04-18T08:07:33.081Z,2.51
2023-04-18T08:08:34.151Z,2.51
2023-04-18T08:09:33.075Z,2.48
2023-04-18T08:10:34.081Z,2.57
2023-04-18T08:11:34.110Z,2.52
2023-04-18T08:12:33.117Z,2.50
2023-04-18T08:13:34.100Z,2.43
2023-04-18T08:14:34.149Z,2.42
2023-04-18T08:15:34.126Z,2.39
2023-04-18T08:16:33.175Z,2.37
2023-04-18T08:17:33.230Z,2.33
2023-04-18T08:18:33.080Z,2.33
2023-04-18T08:19:34.125Z,2.30
2023-04-18T08:20:34.090Z,2.27
2023-04-18T08:21:34.223Z,2.24
2023-04-18T08:22:34.176Z,2.29
2023-04-18T08:23:34.080Z,2.27
2023-04-18T08:24:33.060Z,2.27
2023-04-18T08:25:33.089Z,2.21
2023-04-18T08:26:34.121Z,2.19
2023-04-18T08:27:34.362Z,2.16
2023-04-18T08:28:34.183Z,2.10
2023-04-18T08:29:33.119Z,2.10
2023-04-18T08:30:34.174Z,2.12
2023-04-18T08:31:33.298Z,2.10
2023-04-18T08:32:33.191Z,2.10
2023-04-18T08:33:33.367Z,2.03
2023-04-18T08:34:33.264Z,2.03
2023-04-18T08:35:34.250Z,2.01
2023-04-18T08:36:33.233Z,1.97
2023-04-18T08:37:34.186Z,1.98
2023-04-18T08:38:34.200Z,1.96
2023-04-18T08:39:33.257Z,1.95
2023-04-18T08:40:33.230Z,1.94
2023-04-18T08:41:34.396Z,1.98
2023-04-18T08:42:34.245Z,1.90
2023-04-18T08:43:34.272Z,1.68
2023-04-18T08:44:33.307Z,1.69
2023-04-18T08:45:33.495Z,1.58
2023-04-18T08:46:34.380Z,1.62
2023-04-18T08:47:34.374Z,1.69
2023-04-18T08:48:33.374Z,1.68
2023-04-18T08:49:34.415Z,1.67
2023-04-18T08:50:34.422Z,1.74
2023-04-18T08:51:34.430Z,1.67
2023-04-18T08:52:33.497Z,1.73
2023-04-18T08:53:34.493Z,1.78
2023-04-18T08:54:34.469Z,1.79
2023-04-18T08:55:33.457Z,1.79
2023-04-18T08:56:34.940Z,1.86
2023-04-18T08:57:34.486Z,1.94
2023-04-18T08:58:33.508Z,1.95
2023-04-18T08:59:34.537Z,1.99
2023-04-18T09:00:33.544Z,2.04
2023-04-18T09:01:33.590Z,2.10
2023-04-18T09:02:34.594Z,2.06
2023-04-18T09:03:34.627Z,2.01
2023-04-18T09:04:33.600Z,2.04
2023-04-18T09:05:33.730Z,2.01
2023-04-18T09:06:33.568Z,1.99
2023-04-18T09:07:34.561Z,2.00
2023-04-18T09:08:33.582Z,1.97
2023-04-18T09:09:34.622Z,1.96
2023-04-18T09:10:34.601Z,1.93
2023-04-18T09:11:34.625Z,1.89
2023-04-18T09:12:34.604Z,1.89
2023-04-18T09:13:33.598Z,1.89
2023-04-18T09:14:33.601Z,1.90
2023-04-18T09:15:34.617Z,1.87
2023-04-18T09:16:33.642Z,1.85
2023-04-18T09:17:34.690Z,1.81
2023-04-18T09:18:33.584Z,1.84
2023-04-18T09:19:33.600Z,1.77
2023-04-18T09:20:35.196Z,1.74
2023-04-18T09:21:33.875Z,1.71
2023-04-18T09:22:33.872Z,1.70
2023-04-18T09:23:33.948Z,1.67
2023-04-18T09:24:35.027Z,1.71
2023-04-18T09:25:35.015Z,1.70
2023-04-18T09:26:35.037Z,1.72
2023-04-18T09:27:35.042Z,1.67
2023-04-18T09:28:34.027Z,1.65
2023-04-18T09:29:34.998Z,1.70
2023-04-18T09:30:35.110Z,1.70
2023-04-18T09:31:35.134Z,1.64
2023-04-18T09:32:34.058Z,1.61
2023-04-18T09:33:35.062Z,1.66
2023-04-18T09:34:34.078Z,1.61
2023-04-18T09:35:35.089Z,1.60
2023-04-18T09:36:35.125Z,1.58
2023-04-18T09:37:35.135Z,1.57
2023-04-18T09:38:35.149Z,1.55
2023-04-18T09:39:35.223Z,1.56
2023-04-18T09:40:35.222Z,1.52
2023-04-18T09:41:34.250Z,1.50
2023-04-18T09:42:34.299Z,1.50
2023-04-18T09:43:34.340Z,1.46
2023-04-18T09:44:35.493Z,1.45
2023-04-18T09:45:35.554Z,1.43
2023-04-18T09:46:36.113Z,1.43
2023-04-18T09:47:34.819Z,1.45
2023-04-18T09:48:34.493Z,1.41
2023-04-18T09:49:35.557Z,1.43
2023-04-18T09:50:35.602Z,1.46
2023-04-18T09:51:36.027Z,1.44
2023-04-18T09:52:35.610Z,1.42
2023-04-18T09:53:35.726Z,1.48
2023-04-18T09:54:35.637Z,1.53
2023-04-18T09:55:34.725Z,1.58
2023-04-18T09:56:35.915Z,1.59
2023-04-18T09:57:34.778Z,1.59
2023-04-18T09:58:35.836Z,1.61
2023-04-18T09:59:36.056Z,1.58
2023-04-18T10:00:34.744Z,1.61
2023-04-18T10:01:35.838Z,1.62
2023-04-18T10:02:35.844Z,1.74
2023-04-18T10:03:35.850Z,1.76
2023-04-18T10:04:35.946Z,1.84
2023-04-18T10:05:35.906Z,1.80
2023-04-18T10:06:35.806Z,1.75
2023-04-18T10:07:35.785Z,1.86
2023-04-18T10:08:34.829Z,1.88
2023-04-18T10:09:34.786Z,1.89
2023-04-18T10:10:35.767Z,1.89
2023-04-18T10:11:34.816Z,1.97
2023-04-18T10:12:34.820Z,1.96
2023-04-18T10:13:35.824Z,2.00
2023-04-18T10:14:36.025Z,1.97
2023-04-18T10:15:35.013Z,2.12
2023-04-18T10:16:36.441Z,2.12
2023-04-18T10:17:36.075Z,2.12
2023-04-18T10:18:36.136Z,2.17
2023-04-18T10:19:36.396Z,2.30
2023-04-18T10:20:35.572Z,2.35
2023-04-18T10:21:35.253Z,2.36
2023-04-18T10:22:36.297Z,2.54
2023-04-18T10:23:36.648Z,2.48
2023-04-18T10:24:36.419Z,2.57
2023-04-18T10:25:36.663Z,2.59
2023-04-18T10:26:36.753Z,2.59
2023-04-18T10:27:35.517Z,2.59
2023-04-18T10:28:36.537Z,2.66
2023-04-18T10:29:36.616Z,2.77
2023-04-18T10:30:36.579Z,2.72
2023-04-18T10:31:35.678Z,2.69
2023-04-18T10:32:35.689Z,2.80
2023-04-18T10:33:40.946Z,2.95
2023-04-18T10:34:36.714Z,2.95
2023-04-18T10:35:35.714Z,2.92
2023-04-18T10:36:36.677Z,2.95
2023-04-18T10:37:36.645Z,3.05
2023-04-18T10:38:35.637Z,2.98
2023-04-18T10:39:36.643Z,3.00
2023-04-18T10:40:35.739Z,3.11
2023-04-18T10:41:36.686Z,3.12
2023-04-18T10:42:35.854Z,3.07
2023-04-18T10:43:36.605Z,3.29
2023-04-18T10:44:36.603Z,3.23
2023-04-18T10:45:36.682Z,3.21
2023-04-18T10:46:37.009Z,3.22
2023-04-18T10:47:36.681Z,3.34
2023-04-18T10:48:38.563Z,3.27
2023-04-18T10:49:35.588Z,3.33
2023-04-18T10:50:35.607Z,3.39
2023-04-18T10:51:35.582Z,3.29
2023-04-18T10:52:35.612Z,3.48
2023-04-18T10:53:36.542Z,3.46
2023-04-18T10:54:35.539Z,3.48
2023-04-18T10:55:36.518Z,3.47
2023-04-18T10:56:35.528Z,3.43
2023-04-18T10:57:35.552Z,3.38
2023-04-18T10:58:36.520Z,3.37
2023-04-18T10:59:36.505Z,3.37
2023-04-18T11:00:36.545Z,3.29
2023-04-18T11:01:35.605Z,3.28
2023-04-18T11:02:36.579Z,3.29
2023-04-18T11:03:36.484Z,3.30
2023-04-18T11:04:36.515Z,3.26
2023-04-18T11:05:36.459Z,3.25
2023-04-18T11:06:36.461Z,3.17
2023-04-18T11:07:35.428Z,3.17
2023-04-18T11:08:36.442Z,3.19
2023-04-18T11:09:36.464Z,3.13
2023-04-18T11:10:36.501Z,3.12
2023-04-18T11:11:36.430Z,3.13
2023-04-18T11:12:36.567Z,3.10
2023-04-18T11:13:36.426Z,3.06
2023-04-18T11:14:35.402Z,3.03
2023-04-18T11:15:36.391Z,3.07
2023-04-18T11:16:36.484Z,3.00
2023-04-18T11:17:35.415Z,2.96
2023-04-18T11:18:36.375Z,2.94
2023-04-18T11:19:36.347Z,2.91
2023-04-18T11:20:36.384Z,2.91
2023-04-18T11:21:36.438Z,2.88
2023-04-18T11:22:35.511Z,2.87
2023-04-18T11:23:36.570Z,2.82
2023-04-18T11:24:36.674Z,2.81
2023-04-18T11:25:35.696Z,2.77
2023-04-18T11:26:37.264Z,2.76
2023-04-18T11:27:36.835Z,2.76
2023-04-18T11:28:35.867Z,2.75
2023-04-18T11:29:36.978Z,2.71
2023-04-18T11:30:36.985Z,2.71
2023-04-18T11:31:36.053Z,2.66
2023-04-18T11:32:37.167Z,2.67
2023-04-18T11:33:37.142Z,2.68
2023-04-18T11:34:37.203Z,2.66
2023-04-18T11:35:37.265Z,2.64
2023-04-18T11:36:36.332Z,2.63
2023-04-18T11:37:36.446Z,2.61
2023-04-18T11:38:36.461Z,2.59
2023-04-18T11:39:37.494Z,2.57
2023-04-18T11:40:36.557Z,2.56
2023-04-18T11:41:37.609Z,2.52
2023-04-18T11:42:37.671Z,2.50
2023-04-18T11:43:36.705Z,2.52
2023-04-18T11:44:36.770Z,2.53
2023-04-18T11:45:36.957Z,2.50
2023-04-18T11:46:36.926Z,2.47
2023-04-18T11:47:37.001Z,2.46
2023-04-18T11:48:37.003Z,2.47
2023-04-18T11:49:38.047Z,2.43
2023-04-18T11:50:38.120Z,2.43
2023-04-18T11:51:37.169Z,2.43
2023-04-18T11:52:38.229Z,2.40
2023-04-18T11:53:37.281Z,2.38
2023-04-18T11:54:38.352Z,2.41
2023-04-18T11:55:37.401Z,2.38
2023-04-18T11:56:38.460Z,2.36
2023-04-18T11:57:38.562Z,2.39
2023-04-18T11:58:37.608Z,2.39
2023-04-18T11:59:37.665Z,2.35
2023-04-18T12:00:37.742Z,2.30
2023-04-18T12:01:37.938Z,2.32
2023-04-18T12:02:39.025Z,2.28
2023-04-18T12:03:38.174Z,2.30
2023-04-18T12:04:38.148Z,2.27
2023-04-18T12:05:38.498Z,2.26
2023-04-18T12:06:39.066Z,2.25
2023-04-18T12:07:38.139Z,2.23
2023-04-18T12:08:38.191Z,2.25
2023-04-18T12:09:38.238Z,2.23
2023-04-18T12:10:39.296Z,2.21
2023-04-18T12:11:39.372Z,2.14
2023-04-18T12:12:39.445Z,2.18
2023-04-18T12:13:38.511Z,2.15
2023-04-18T12:14:38.537Z,2.09
2023-04-18T12:15:38.762Z,2.11
2023-04-18T12:16:39.649Z,2.09
2023-04-18T12:17:39.780Z,2.08
2023-04-18T12:18:39.776Z,2.03
2023-04-18T12:19:39.801Z,1.58
2023-04-18T12:20:39.881Z,1.53
2023-04-18T12:21:38.886Z,1.02
2023-04-18T12:22:38.910Z,0.94
2023-04-18T12:23:39.936Z,0.76
2023-04-18T12:24:39.972Z,0.80
2023-04-18T12:25:40.012Z,0.79
2023-04-18T12:26:40.019Z,0.91
2023-04-18T12:27:40.023Z,0.97
2023-04-18T12:28:40.031Z,1.31
2023-04-18T12:29:39.046Z,1.40
2023-04-18T12:30:40.055Z,1.28
2023-04-18T12:31:39.110Z,1.10
2023-04-18T12:32:40.140Z,1.06
2023-04-18T12:33:40.123Z,1.09
2023-04-18T12:34:40.113Z,1.14
2023-04-18T12:35:39.125Z,1.19
2023-04-18T12:36:39.149Z,1.17
2023-04-18T12:37:39.164Z,1.14
2023-04-18T12:38:40.138Z,1.11
2023-04-18T12:39:40.150Z,1.11
2023-04-18T12:40:39.191Z,1.11
2023-04-18T12:41:39.184Z,1.12
2023-04-18T12:42:39.208Z,1.11
2023-04-18T12:43:40.202Z,1.11
2023-04-18T12:44:40.202Z,1.08
2023-04-18T12:45:39.215Z,1.09
2023-04-18T12:46:40.238Z,1.08
2023-04-18T12:47:39.260Z,1.08
2023-04-18T12:48:40.237Z,1.10
2023-04-18T12:49:40.289Z,1.08
2023-04-18T12:50:40.278Z,1.06
2023-04-18T12:51:40.278Z,1.08
2023-04-18T12:52:40.319Z,1.06
2023-04-18T12:53:40.291Z,1.06
2023-04-18T12:54:39.296Z,1.06
2023-04-18T12:55:39.282Z,1.06
2023-04-18T12:56:40.317Z,1.05
2023-04-18T12:57:40.322Z,1.04
2023-04-18T12:58:40.337Z,1.04
2023-04-18T12:59:39.328Z,1.05
2023-04-18T13:00:39.431Z,1.04
2023-04-18T13:01:40.359Z,1.05
2023-04-18T13:02:40.530Z,1.04
2023-04-18T13:03:40.608Z,1.04
2023-04-18T13:04:40.666Z,1.04
2023-04-18T13:05:40.495Z,1.02
2023-04-18T13:06:39.473Z,1.03
2023-04-18T13:07:40.507Z,1.02
2023-04-18T13:08:40.452Z,1.03
2023-04-18T13:09:40.468Z,1.02
2023-04-18T13:10:40.483Z,1.02
2023-04-18T13:11:39.493Z,1.02
2023-04-18T13:12:39.503Z,1.01
2023-04-18T13:13:39.512Z,1.04
2023-04-18T13:14:40.504Z,1.02
2023-04-18T13:15:39.511Z,1.02
2023-04-18T13:16:42.522Z,1.00
2023-04-18T13:17:41.043Z,1.00
2023-04-18T13:18:40.519Z,1.01